Vila Real, Portugal

3:09 PM WEST on July 24, 2014 (GMT +0100)
Moimenta Da Beira (IMOIMENT2) Elev 2116 ft | 40.98 °N, 7.61 °W | Change Station

Current weather conditions updated 4 minutes ago

Overcast
Overcast
78.8 °F
Feels Like 80 °F
N
7.6
Wind Variable Wind from West
Gusts 13.6 mph

Today is forecast to be Cooler than yesterday.

Today
High -- | Low -- °F
--% Chance of Precip.
Yesterday
High -- | Low -- °F
Precip. -- in
6:18 AM 8:55 PM
Waning Crescent, 5% visible
Pressure 29.92 in
Visibility 6.2 miles
Clouds Few 1400 ft
Overcast 3200 ft
Heat Index 80 °F
Dew Point 62 °F
Humidity 57%
Rainfall 0.00 in
Snow Depth Not available.
UV 4 out of 12
Pollen Not available.
Air Quality Not available.
Flu Activity Not available.
METAR LPPR 241330Z 31007KT 270V340 9999 FEW014 OVC032 21/18 Q1013

More Conditions Fewer Conditions

Pressure 29.92 in
Visibility 6.2 miles
Clouds Few 1400 ft
Overcast 3200 ft
Heat Index 80 °F
Dew Point 62 °F
Humidity 57%
Rainfall 0.00 in
Snow Depth Not available.
UV 4 out of 12
Pollen Not available.
Air Quality Not available.
Flu Activity Not available.
METAR LPPR 241330Z 31007KT 270V340 9999 FEW014 OVC032 21/18 Q1013

More Conditions Fewer Conditions

10-Day Weather Forecast

Almanac

Astronomy

Jul. 24, 2014 Rise Set
Actual Time 6:18 AM WEST 8:55 PM WEST
Civil Twilight 5:46 AM WEST 9:27 PM WEST
Nautical Twilight 5:06 AM WEST 10:07 PM WEST
Astronomical Twilight 4:21 AM WEST 10:52 PM WEST
Moon 4:15 AM WEST 7:00 PM WEST
Length of Visible Light 15h 41m
Length of Day
14h 37m
Tomorrow will be 1m 49s shorter.
Waning Crescent, 5% of the Moon is Illuminated
Today
Waning Crescent
Jul 26
New
Aug 3
First Quarter
Aug 10
Full
Aug 17
Last Quarter

Yesterday's Extremes

Country Highs Country Lows

Community

WunderPhotos

Upload Photos

1,737,007 photos uploaded!

Nearby

Snow Depth

Not available.

Earthquake Activity

City Distance Mag. Time & Date
No recent earthquake activity has been reported nearby.
Minimum magnitude displayed is 2.5.

Coastal Water Temperatures

Place Temperature
No Stations Reporting

Nearby Weather Stations

Station Location Temp. Heat Index Dew Point Humidity Wind Precip. Elev Updated Type
Moimenta Da Beira, Moimenta Da Beira 78.8 °F 80 °F 62 °F 57% West  at  7.6 mph 0.00 in / hr 2116 ft 3:05 PM WEST Normal
Lixa - ESL, Lixa 77.4 °F 78 °F 50 °F 38% WNW  at  2.5 mph 0.00 in / hr 1266 ft 3:09 PM WEST Rapid Fire

Show More Stations Show Fewer Stations